EZY246Y EGKK-EGPH
Flight info
| Callsign | EZY246Y |
|---|---|
| Flight time | 0h 58m |
| Altitude | 34000 |
| Route | LAM L10 BPK UN601 RIBEL DCT INPIP |
| Aircraft | A320/M-SDE2E3FGHIRWXY/LB1 |
Departure
| Time | 2026-05-05 05:40 |
|---|---|
| Airport | London Gatwick Airport (EGKK) |
Arrival
| Time | 2026-05-05 06:39 |
|---|---|
| Airport | Edinburgh Airport (EGPH) |
| Time | Latitude | Longitude | Altitude | Speed | Heading |
|---|---|---|---|---|---|
| 2026-05-05 05:12 | 51.15591 | -0.17621 | 204 ft | 0 kts | 347° |
| 2026-05-05 05:30 | 51.15582 | -0.17618 | 214 ft | 4 kts | 345° |
| 2026-05-05 05:30 | 51.15557 | -0.17604 | 216 ft | 4 kts | 332° |
| 2026-05-05 05:30 | 51.15536 | -0.17579 | 216 ft | 4 kts | 298° |
| 2026-05-05 05:31 | 51.15532 | -0.17553 | 214 ft | 1 kts | 257° |
| 2026-05-05 05:31 | 51.15533 | -0.17548 | 209 ft | 0 kts | 257° |
| 2026-05-05 05:31 | 51.15533 | -0.17547 | 209 ft | 0 kts | 257° |
| 2026-05-05 05:33 | 51.15530 | -0.17570 | 215 ft | 6 kts | 257° |
| 2026-05-05 05:33 | 51.15517 | -0.17663 | 215 ft | 12 kts | 257° |
| 2026-05-05 05:34 | 51.15495 | -0.17818 | 204 ft | 15 kts | 257° |
| 2026-05-05 05:34 | 51.15474 | -0.17969 | 214 ft | 13 kts | 257° |
| 2026-05-05 05:34 | 51.15456 | -0.18102 | 210 ft | 12 kts | 257° |
| 2026-05-05 05:34 | 51.15439 | -0.18218 | 207 ft | 10 kts | 257° |
| 2026-05-05 05:35 | 51.15397 | -0.18276 | 205 ft | 8 kts | 178° |
| 2026-05-05 05:35 | 51.15346 | -0.18262 | 204 ft | 7 kts | 167° |
| 2026-05-05 05:35 | 51.15284 | -0.18239 | 204 ft | 11 kts | 167° |
| 2026-05-05 05:35 | 51.15215 | -0.18220 | 204 ft | 9 kts | 187° |
| 2026-05-05 05:36 | 51.15186 | -0.18316 | 208 ft | 13 kts | 264° |
| 2026-05-05 05:36 | 51.15161 | -0.18497 | 209 ft | 20 kts | 257° |
| 2026-05-05 05:36 | 51.15124 | -0.18749 | 208 ft | 27 kts | 258° |
| 2026-05-05 05:36 | 51.15084 | -0.19062 | 211 ft | 30 kts | 258° |
| 2026-05-05 05:37 | 51.15040 | -0.19385 | 214 ft | 31 kts | 258° |
| 2026-05-05 05:37 | 51.15010 | -0.19613 | 211 ft | 31 kts | 258° |
| 2026-05-05 05:37 | 51.14961 | -0.19952 | 204 ft | 30 kts | 256° |
| 2026-05-05 05:37 | 51.14915 | -0.20287 | 203 ft | 31 kts | 258° |
| 2026-05-05 05:38 | 51.14868 | -0.20631 | 206 ft | 32 kts | 258° |
| 2026-05-05 05:38 | 51.14822 | -0.20963 | 208 ft | 24 kts | 257° |
| 2026-05-05 05:38 | 51.14791 | -0.21153 | 206 ft | 15 kts | 253° |
| 2026-05-05 05:38 | 51.14762 | -0.21309 | 207 ft | 14 kts | 253° |
| 2026-05-05 05:39 | 51.14708 | -0.21397 | 204 ft | 12 kts | 173° |
| 2026-05-05 05:39 | 51.14643 | -0.21339 | 205 ft | 10 kts | 151° |
| 2026-05-05 05:39 | 51.14567 | -0.21300 | 203 ft | 14 kts | 152° |
| 2026-05-05 05:39 | 51.14526 | -0.21127 | 210 ft | 25 kts | 76° |
| 2026-05-05 05:40 | 51.14606 | -0.20561 | 207 ft | 86 kts | 77° |
| 2026-05-05 05:40 | 51.14780 | -0.19310 | 205 ft | 142 kts | 77° |
| 2026-05-05 05:40 | 51.15018 | -0.17626 | 507 ft | 163 kts | 78° |
| 2026-05-05 05:40 | 51.15257 | -0.15841 | 1185 ft | 165 kts | 75° |
| 2026-05-05 05:41 | 51.15506 | -0.14023 | 1769 ft | 176 kts | 74° |
| 2026-05-05 05:41 | 51.15788 | -0.11993 | 2100 ft | 200 kts | 74° |
| 2026-05-05 05:41 | 51.16100 | -0.09755 | 2447 ft | 224 kts | 74° |
| 2026-05-05 05:41 | 51.16516 | -0.07241 | 2928 ft | 243 kts | 63° |
| 2026-05-05 05:42 | 51.17437 | -0.04961 | 3662 ft | 248 kts | 50° |
| 2026-05-05 05:42 | 51.18508 | -0.02756 | 4474 ft | 255 kts | 50° |
| 2026-05-05 05:42 | 51.19609 | -0.00482 | 5258 ft | 263 kts | 51° |
| 2026-05-05 05:42 | 51.20735 | 0.01849 | 6102 ft | 268 kts | 51° |
| 2026-05-05 05:43 | 51.21867 | 0.04194 | 6894 ft | 272 kts | 51° |
| 2026-05-05 05:43 | 51.23024 | 0.06595 | 7691 ft | 277 kts | 51° |
| 2026-05-05 05:43 | 51.24199 | 0.09059 | 8486 ft | 281 kts | 54° |
| 2026-05-05 05:43 | 51.25070 | 0.11808 | 9243 ft | 288 kts | 72° |
| 2026-05-05 05:44 | 51.25497 | 0.14956 | 10058 ft | 293 kts | 79° |
| 2026-05-05 05:44 | 51.25872 | 0.18165 | 10846 ft | 295 kts | 79° |
| 2026-05-05 05:44 | 51.26175 | 0.20735 | 11454 ft | 298 kts | 79° |
| 2026-05-05 05:44 | 51.26563 | 0.23998 | 12223 ft | 301 kts | 79° |
| 2026-05-05 05:45 | 51.26958 | 0.27296 | 12979 ft | 304 kts | 79° |
| 2026-05-05 05:45 | 51.27597 | 0.30516 | 13697 ft | 307 kts | 61° |
| 2026-05-05 05:45 | 51.28939 | 0.33253 | 13978 ft | 325 kts | 39° |
| 2026-05-05 05:45 | 51.30980 | 0.34998 | 14101 ft | 346 kts | 14° |
| 2026-05-05 05:46 | 51.33428 | 0.35227 | 14200 ft | 363 kts | 349° |
| 2026-05-05 05:46 | 51.35850 | 0.33928 | 14639 ft | 371 kts | 338° |
| 2026-05-05 05:46 | 51.38257 | 0.32364 | 15205 ft | 376 kts | 338° |
| 2026-05-05 05:46 | 51.40691 | 0.30772 | 15791 ft | 380 kts | 338° |
| 2026-05-05 05:47 | 51.43122 | 0.29188 | 16328 ft | 384 kts | 338° |
| 2026-05-05 05:47 | 51.45613 | 0.27566 | 16858 ft | 389 kts | 338° |
| 2026-05-05 05:47 | 51.48136 | 0.25925 | 17444 ft | 393 kts | 338° |
| 2026-05-05 05:47 | 51.50684 | 0.24271 | 18024 ft | 396 kts | 338° |
| 2026-05-05 05:48 | 51.53251 | 0.22600 | 18551 ft | 400 kts | 338° |
| 2026-05-05 05:48 | 51.55842 | 0.20910 | 19045 ft | 404 kts | 338° |
| 2026-05-05 05:48 | 51.58385 | 0.19250 | 19550 ft | 407 kts | 337° |
| 2026-05-05 05:48 | 51.60851 | 0.17637 | 20026 ft | 410 kts | 337° |
| 2026-05-05 05:49 | 51.63443 | 0.15443 | 20536 ft | 412 kts | 324° |
| 2026-05-05 05:49 | 51.65582 | 0.12387 | 21014 ft | 413 kts | 309° |
| 2026-05-05 05:49 | 51.67250 | 0.08620 | 21475 ft | 415 kts | 301° |
| 2026-05-05 05:49 | 51.68715 | 0.04972 | 21935 ft | 417 kts | 301° |
| 2026-05-05 05:50 | 51.70270 | 0.01092 | 22391 ft | 420 kts | 301° |
| 2026-05-05 05:50 | 51.71860 | -0.02883 | 22838 ft | 423 kts | 301° |
| 2026-05-05 05:50 | 51.73419 | -0.06696 | 23239 ft | 427 kts | 305° |
| 2026-05-05 05:50 | 51.75394 | -0.10307 | 23646 ft | 432 kts | 316° |
| 2026-05-05 05:51 | 51.77769 | -0.13308 | 24006 ft | 436 kts | 326° |
| 2026-05-05 05:51 | 51.79676 | -0.15152 | 24269 ft | 438 kts | 328° |
| 2026-05-05 05:51 | 51.82309 | -0.17651 | 24664 ft | 439 kts | 328° |
| 2026-05-05 05:51 | 51.84879 | -0.20092 | 25071 ft | 439 kts | 328° |
| 2026-05-05 05:52 | 51.86819 | -0.21938 | 25346 ft | 440 kts | 328° |
| 2026-05-05 05:52 | 51.89457 | -0.24460 | 25705 ft | 441 kts | 327° |
| 2026-05-05 05:52 | 51.92009 | -0.26906 | 26026 ft | 443 kts | 327° |
| 2026-05-05 05:52 | 51.94637 | -0.29423 | 26367 ft | 444 kts | 327° |
| 2026-05-05 05:53 | 51.97268 | -0.31948 | 26698 ft | 446 kts | 327° |
| 2026-05-05 05:53 | 51.99941 | -0.34514 | 27030 ft | 447 kts | 327° |
| 2026-05-05 05:53 | 52.02623 | -0.37092 | 27346 ft | 449 kts | 327° |
| 2026-05-05 05:53 | 52.05230 | -0.39601 | 27669 ft | 450 kts | 327° |
| 2026-05-05 05:54 | 52.07924 | -0.42201 | 27991 ft | 451 kts | 327° |
| 2026-05-05 05:54 | 52.10570 | -0.44759 | 28270 ft | 452 kts | 327° |
| 2026-05-05 05:54 | 52.13252 | -0.47357 | 28553 ft | 454 kts | 327° |
| 2026-05-05 05:54 | 52.15966 | -0.49990 | 28816 ft | 455 kts | 327° |
| 2026-05-05 05:55 | 52.18688 | -0.52637 | 29068 ft | 457 kts | 327° |
| 2026-05-05 05:55 | 52.21424 | -0.55302 | 29306 ft | 458 kts | 327° |
| 2026-05-05 05:55 | 52.24162 | -0.57969 | 29531 ft | 459 kts | 327° |
| 2026-05-05 05:55 | 52.26909 | -0.60638 | 29798 ft | 459 kts | 327° |
| 2026-05-05 05:56 | 52.29655 | -0.63303 | 30107 ft | 459 kts | 327° |
| 2026-05-05 05:56 | 52.32224 | -0.65801 | 30333 ft | 459 kts | 328° |
| 2026-05-05 05:56 | 52.34844 | -0.68359 | 30569 ft | 459 kts | 328° |
| 2026-05-05 05:56 | 52.37579 | -0.71039 | 30822 ft | 458 kts | 328° |
| 2026-05-05 05:57 | 52.40310 | -0.73717 | 31081 ft | 458 kts | 328° |
| 2026-05-05 05:57 | 52.43041 | -0.76397 | 31332 ft | 457 kts | 328° |
| 2026-05-05 05:57 | 52.45703 | -0.79011 | 31598 ft | 456 kts | 328° |
| 2026-05-05 05:57 | 52.48425 | -0.81691 | 31866 ft | 456 kts | 328° |
| 2026-05-05 05:58 | 52.51109 | -0.84342 | 32125 ft | 455 kts | 328° |
| 2026-05-05 05:58 | 52.53819 | -0.87029 | 32378 ft | 455 kts | 329° |
| 2026-05-05 05:58 | 52.56495 | -0.89688 | 32619 ft | 455 kts | 329° |
| 2026-05-05 05:58 | 52.59201 | -0.92381 | 32874 ft | 454 kts | 329° |
| 2026-05-05 05:59 | 52.61902 | -0.95068 | 33145 ft | 454 kts | 329° |
| 2026-05-05 05:59 | 52.64505 | -0.97655 | 33400 ft | 453 kts | 329° |
| 2026-05-05 05:59 | 52.67203 | -1.00338 | 33669 ft | 452 kts | 330° |
| 2026-05-05 05:59 | 52.69897 | -1.03021 | 33907 ft | 453 kts | 330° |
| 2026-05-05 06:00 | 52.72593 | -1.05710 | 34012 ft | 453 kts | 330° |
| 2026-05-05 06:00 | 52.75274 | -1.08389 | 34026 ft | 453 kts | 330° |
| 2026-05-05 06:00 | 52.80652 | -1.13780 | 34027 ft | 452 kts | 330° |
| 2026-05-05 06:01 | 52.85977 | -1.19136 | 34029 ft | 451 kts | 330° |
| 2026-05-05 06:01 | 52.91378 | -1.24576 | 34029 ft | 451 kts | 330° |
| 2026-05-05 06:02 | 52.96708 | -1.29952 | 34027 ft | 451 kts | 330° |
| 2026-05-05 06:02 | 53.02054 | -1.35370 | 34021 ft | 451 kts | 329° |
| 2026-05-05 06:03 | 53.07251 | -1.40670 | 34025 ft | 450 kts | 329° |
| 2026-05-05 06:03 | 53.12583 | -1.46101 | 34030 ft | 449 kts | 329° |
| 2026-05-05 06:04 | 53.17804 | -1.51446 | 34027 ft | 449 kts | 329° |
| 2026-05-05 06:04 | 53.22264 | -1.55834 | 34013 ft | 448 kts | 330° |
| 2026-05-05 06:05 | 53.27559 | -1.61247 | 34017 ft | 447 kts | 328° |
| 2026-05-05 06:05 | 53.32786 | -1.66815 | 34034 ft | 447 kts | 327° |
| 2026-05-05 06:06 | 53.38053 | -1.72352 | 34035 ft | 447 kts | 328° |
| 2026-05-05 06:06 | 53.43342 | -1.77826 | 34034 ft | 446 kts | 328° |
| 2026-05-05 06:07 | 53.48545 | -1.83210 | 34031 ft | 446 kts | 328° |
| 2026-05-05 06:07 | 53.53694 | -1.88571 | 34041 ft | 446 kts | 328° |
| 2026-05-05 06:08 | 53.58969 | -1.94085 | 34042 ft | 447 kts | 328° |
| 2026-05-05 06:08 | 53.64246 | -1.99610 | 34041 ft | 447 kts | 328° |
| 2026-05-05 06:09 | 53.69512 | -2.05173 | 34041 ft | 447 kts | 328° |
| 2026-05-05 06:09 | 53.74743 | -2.10499 | 34054 ft | 446 kts | 334° |
| 2026-05-05 06:10 | 53.80484 | -2.14472 | 34058 ft | 446 kts | 337° |
| 2026-05-05 06:10 | 53.86231 | -2.18382 | 34055 ft | 445 kts | 337° |
| 2026-05-05 06:11 | 53.91970 | -2.22312 | 34054 ft | 445 kts | 337° |
| 2026-05-05 06:11 | 53.97703 | -2.26256 | 34058 ft | 444 kts | 336° |
| 2026-05-05 06:12 | 54.03432 | -2.30210 | 34056 ft | 444 kts | 336° |
| 2026-05-05 06:12 | 54.09154 | -2.34177 | 34056 ft | 444 kts | 336° |
| 2026-05-05 06:13 | 54.14873 | -2.38141 | 34056 ft | 444 kts | 336° |
| 2026-05-05 06:13 | 54.20588 | -2.42106 | 34053 ft | 443 kts | 336° |
| 2026-05-05 06:14 | 54.26292 | -2.46073 | 34063 ft | 442 kts | 335° |
| 2026-05-05 06:14 | 54.31979 | -2.50045 | 34062 ft | 441 kts | 335° |
| 2026-05-05 06:15 | 54.37655 | -2.54028 | 34059 ft | 441 kts | 335° |
| 2026-05-05 06:15 | 54.43335 | -2.58023 | 33441 ft | 441 kts | 335° |
| 2026-05-05 06:16 | 54.46176 | -2.60025 | 32807 ft | 441 kts | 335° |
| 2026-05-05 06:16 | 54.49005 | -2.62019 | 32290 ft | 437 kts | 335° |
| 2026-05-05 06:16 | 54.51807 | -2.63994 | 31766 ft | 434 kts | 335° |
| 2026-05-05 06:16 | 54.54588 | -2.65958 | 31253 ft | 430 kts | 335° |
| 2026-05-05 06:17 | 54.57346 | -2.67911 | 30754 ft | 427 kts | 334° |
| 2026-05-05 06:17 | 54.60078 | -2.69850 | 30260 ft | 423 kts | 334° |
| 2026-05-05 06:17 | 54.62793 | -2.71783 | 29711 ft | 420 kts | 334° |
| 2026-05-05 06:17 | 54.65485 | -2.73702 | 29142 ft | 417 kts | 334° |
| 2026-05-05 06:18 | 54.68152 | -2.75606 | 28588 ft | 413 kts | 334° |
| 2026-05-05 06:18 | 54.70802 | -2.77499 | 28037 ft | 410 kts | 334° |
| 2026-05-05 06:18 | 54.73428 | -2.79375 | 27517 ft | 407 kts | 334° |
| 2026-05-05 06:18 | 54.76034 | -2.81236 | 26996 ft | 404 kts | 334° |
| 2026-05-05 06:19 | 54.78621 | -2.83088 | 26480 ft | 400 kts | 334° |
| 2026-05-05 06:19 | 54.81180 | -2.84929 | 26110 ft | 396 kts | 334° |
| 2026-05-05 06:19 | 54.83722 | -2.86766 | 26024 ft | 396 kts | 333° |
| 2026-05-05 06:19 | 54.86268 | -2.88609 | 26046 ft | 397 kts | 333° |
| 2026-05-05 06:20 | 54.88814 | -2.90453 | 26044 ft | 397 kts | 334° |
| 2026-05-05 06:20 | 54.91362 | -2.92295 | 25967 ft | 398 kts | 334° |
| 2026-05-05 06:20 | 54.93919 | -2.94142 | 25413 ft | 397 kts | 334° |
| 2026-05-05 06:20 | 54.96462 | -2.95976 | 24861 ft | 394 kts | 334° |
| 2026-05-05 06:21 | 54.98135 | -2.97185 | 24538 ft | 392 kts | 333° |
| 2026-05-05 06:21 | 55.00647 | -2.99005 | 24025 ft | 390 kts | 333° |
| 2026-05-05 06:21 | 55.03144 | -3.00821 | 23492 ft | 388 kts | 333° |
| 2026-05-05 06:21 | 55.05626 | -3.02632 | 22882 ft | 386 kts | 333° |
| 2026-05-05 06:22 | 55.08099 | -3.04435 | 22281 ft | 385 kts | 333° |
| 2026-05-05 06:22 | 55.10563 | -3.06235 | 21695 ft | 384 kts | 334° |
| 2026-05-05 06:22 | 55.13024 | -3.08033 | 21113 ft | 383 kts | 334° |
| 2026-05-05 06:22 | 55.15477 | -3.09826 | 20541 ft | 382 kts | 334° |
| 2026-05-05 06:23 | 55.17920 | -3.11615 | 20119 ft | 377 kts | 334° |
| 2026-05-05 06:23 | 55.20301 | -3.13356 | 20012 ft | 364 kts | 334° |
| 2026-05-05 06:23 | 55.22593 | -3.15030 | 19747 ft | 350 kts | 334° |
| 2026-05-05 06:23 | 55.24798 | -3.16646 | 19315 ft | 337 kts | 333° |
| 2026-05-05 06:24 | 55.26920 | -3.18202 | 18872 ft | 325 kts | 333° |
| 2026-05-05 06:24 | 55.29018 | -3.19583 | 18444 ft | 322 kts | 342° |
| 2026-05-05 06:24 | 55.31226 | -3.20135 | 17971 ft | 320 kts | 356° |
| 2026-05-05 06:24 | 55.33423 | -3.19886 | 17483 ft | 313 kts | 1° |
| 2026-05-05 06:25 | 55.35562 | -3.19545 | 17005 ft | 305 kts | 1° |
| 2026-05-05 06:25 | 55.37645 | -3.19214 | 16533 ft | 297 kts | 1° |
| 2026-05-05 06:25 | 55.39682 | -3.18891 | 16067 ft | 291 kts | 1° |
| 2026-05-05 06:25 | 55.41687 | -3.18575 | 15569 ft | 288 kts | 1° |
| 2026-05-05 06:26 | 55.43683 | -3.18264 | 15072 ft | 290 kts | 1° |
| 2026-05-05 06:26 | 55.45714 | -3.17951 | 14582 ft | 296 kts | 1° |
| 2026-05-05 06:26 | 55.47785 | -3.17632 | 14097 ft | 301 kts | 1° |
| 2026-05-05 06:26 | 55.49890 | -3.17303 | 13602 ft | 306 kts | 1° |
| 2026-05-05 06:27 | 55.52024 | -3.16971 | 13061 ft | 309 kts | 1° |
| 2026-05-05 06:27 | 55.56266 | -3.16304 | 12007 ft | 299 kts | 1° |
| 2026-05-05 06:27 | 55.58308 | -3.15976 | 11495 ft | 290 kts | 1° |
| 2026-05-05 06:28 | 55.60299 | -3.15657 | 10985 ft | 284 kts | 2° |
| 2026-05-05 06:28 | 55.62245 | -3.15351 | 10494 ft | 278 kts | 2° |
| 2026-05-05 06:28 | 55.64151 | -3.15050 | 10008 ft | 272 kts | 2° |
| 2026-05-05 06:28 | 55.66012 | -3.14750 | 9477 ft | 265 kts | 2° |
| 2026-05-05 06:29 | 55.67831 | -3.14460 | 8946 ft | 260 kts | 2° |
| 2026-05-05 06:29 | 55.69616 | -3.14179 | 8419 ft | 255 kts | 3° |
| 2026-05-05 06:29 | 55.71370 | -3.13904 | 7917 ft | 251 kts | 3° |
| 2026-05-05 06:29 | 55.73097 | -3.13633 | 7585 ft | 249 kts | 3° |
| 2026-05-05 06:30 | 55.74828 | -3.13354 | 7263 ft | 249 kts | 6° |
| 2026-05-05 06:30 | 55.76484 | -3.12482 | 6934 ft | 249 kts | 24° |
| 2026-05-05 06:30 | 55.78029 | -3.11106 | 6614 ft | 248 kts | 24° |
| 2026-05-05 06:30 | 55.79565 | -3.09728 | 6284 ft | 246 kts | 25° |
| 2026-05-05 06:31 | 55.81091 | -3.08355 | 5939 ft | 245 kts | 25° |
| 2026-05-05 06:31 | 55.82587 | -3.07008 | 5616 ft | 244 kts | 26° |
| 2026-05-05 06:31 | 55.84117 | -3.05632 | 5272 ft | 242 kts | 25° |
| 2026-05-05 06:31 | 55.85666 | -3.04619 | 4939 ft | 240 kts | 10° |
| 2026-05-05 06:32 | 55.87302 | -3.04103 | 4597 ft | 239 kts | 9° |
| 2026-05-05 06:32 | 55.88931 | -3.03586 | 4252 ft | 237 kts | 9° |
| 2026-05-05 06:32 | 55.90542 | -3.03065 | 3911 ft | 234 kts | 9° |
| 2026-05-05 06:32 | 55.92135 | -3.02549 | 3573 ft | 231 kts | 9° |
| 2026-05-05 06:33 | 55.93713 | -3.02043 | 3236 ft | 229 kts | 9° |
| 2026-05-05 06:33 | 55.95279 | -3.01913 | 3031 ft | 220 kts | 354° |
| 2026-05-05 06:33 | 55.96778 | -3.02262 | 3022 ft | 216 kts | 352° |
| 2026-05-05 06:33 | 55.98271 | -3.02604 | 3023 ft | 216 kts | 353° |
| 2026-05-05 06:34 | 55.99765 | -3.02942 | 3022 ft | 216 kts | 352° |
| 2026-05-05 06:34 | 56.01250 | -3.03354 | 3021 ft | 216 kts | 343° |
| 2026-05-05 06:34 | 56.02562 | -3.04588 | 3021 ft | 211 kts | 320° |
| 2026-05-05 06:34 | 56.03459 | -3.06634 | 3024 ft | 211 kts | 297° |
| 2026-05-05 06:35 | 56.03817 | -3.09184 | 3028 ft | 215 kts | 273° |
| 2026-05-05 06:35 | 56.03542 | -3.11778 | 3022 ft | 209 kts | 248° |
| 2026-05-05 06:35 | 56.02839 | -3.13974 | 2939 ft | 200 kts | 242° |
| 2026-05-05 06:35 | 56.02130 | -3.16081 | 2720 ft | 197 kts | 242° |
| 2026-05-05 06:36 | 56.01428 | -3.18174 | 2481 ft | 195 kts | 242° |
| 2026-05-05 06:36 | 56.00737 | -3.20230 | 2218 ft | 191 kts | 242° |
| 2026-05-05 06:36 | 56.00069 | -3.22214 | 1938 ft | 181 kts | 242° |
| 2026-05-05 06:36 | 55.99434 | -3.24102 | 1705 ft | 175 kts | 243° |
| 2026-05-05 06:37 | 55.98823 | -3.25915 | 1459 ft | 166 kts | 242° |
| 2026-05-05 06:37 | 55.98245 | -3.27629 | 1238 ft | 155 kts | 242° |
| 2026-05-05 06:37 | 55.97702 | -3.29238 | 1026 ft | 148 kts | 242° |
| 2026-05-05 06:37 | 55.97175 | -3.30793 | 821 ft | 145 kts | 243° |
| 2026-05-05 06:38 | 55.96658 | -3.32342 | 605 ft | 146 kts | 242° |
| 2026-05-05 06:38 | 55.96137 | -3.33895 | 394 ft | 146 kts | 240° |
| 2026-05-05 06:38 | 55.95607 | -3.35442 | 194 ft | 146 kts | 239° |
| 2026-05-05 06:38 | 55.95107 | -3.36946 | 113 ft | 127 kts | 239° |
| 2026-05-05 06:39 | 55.94735 | -3.38041 | 113 ft | 78 kts | 239° |
| 2026-05-05 06:39 | 55.94543 | -3.38610 | 113 ft | 31 kts | 237° |
| 2026-05-05 06:39 | 55.94425 | -3.38919 | 113 ft | 25 kts | 233° |
| 2026-05-05 06:39 | 55.94326 | -3.38893 | 115 ft | 13 kts | 142° |
| 2026-05-05 06:40 | 55.94291 | -3.38776 | 115 ft | 11 kts | 72° |
| 2026-05-05 06:40 | 55.94335 | -3.38637 | 115 ft | 13 kts | 59° |
| 2026-05-05 06:40 | 55.94380 | -3.38505 | 114 ft | 12 kts | 59° |
| 2026-05-05 06:40 | 55.94419 | -3.38390 | 115 ft | 10 kts | 58° |
| 2026-05-05 06:41 | 55.94454 | -3.38289 | 116 ft | 11 kts | 58° |
| 2026-05-05 06:41 | 55.94515 | -3.38111 | 113 ft | 22 kts | 58° |
| 2026-05-05 06:41 | 55.94603 | -3.37851 | 115 ft | 26 kts | 59° |
| 2026-05-05 06:41 | 55.94698 | -3.37573 | 113 ft | 27 kts | 59° |
| 2026-05-05 06:42 | 55.94797 | -3.37279 | 114 ft | 28 kts | 58° |
| 2026-05-05 06:42 | 55.94901 | -3.36975 | 116 ft | 29 kts | 59° |
| 2026-05-05 06:42 | 55.95007 | -3.36661 | 115 ft | 29 kts | 59° |
| 2026-05-05 06:42 | 55.95089 | -3.36415 | 114 ft | 19 kts | 59° |
| 2026-05-05 06:43 | 55.95129 | -3.36202 | 114 ft | 18 kts | 102° |
| 2026-05-05 06:43 | 55.95096 | -3.36011 | 113 ft | 14 kts | 111° |
| 2026-05-05 06:43 | 55.95056 | -3.35869 | 114 ft | 12 kts | 119° |
| 2026-05-05 06:43 | 55.94991 | -3.35850 | 116 ft | 10 kts | 205° |
| 2026-05-05 06:44 | 55.94932 | -3.35843 | 114 ft | 8 kts | 146° |
| 2026-05-05 06:44 | 55.94904 | -3.35767 | 113 ft | 7 kts | 117° |
| 2026-05-05 06:44 | 55.94877 | -3.35719 | 115 ft | 5 kts | 179° |
| 2026-05-05 06:44 | 55.94864 | -3.35691 | 116 ft | 3 kts | 110° |
| 2026-05-05 06:45 | 55.94857 | -3.35653 | 116 ft | 5 kts | 107° |
| 2026-05-05 06:45 | 55.94846 | -3.35588 | 115 ft | 5 kts | 110° |
| 2026-05-05 06:45 | 55.94833 | -3.35537 | 115 ft | 4 kts | 116° |
| 2026-05-05 06:45 | 55.94815 | -3.35515 | 115 ft | 2 kts | 169° |
| 2026-05-05 06:46 | 55.94801 | -3.35520 | 116 ft | 2 kts | 193° |
| 2026-05-05 06:46 | 55.94788 | -3.35531 | 115 ft | 2 kts | 206° |
| 2026-05-05 06:46 | 55.94776 | -3.35543 | 114 ft | 2 kts | 208° |
| 2026-05-05 06:46 | 55.94769 | -3.35551 | 115 ft | 1 kts | 209° |
| 2026-05-05 06:47 | 55.94766 | -3.35553 | 115 ft | 0 kts | 209° |
| 2026-05-05 06:54 | 55.94766 | -3.35554 | 117 ft | 0 kts | 209° |
| 2026-05-05 07:06 | 55.94766 | -3.35553 | 117 ft | 0 kts | 209° |